sensor_id;sensor_type;location;lat;lon;timestamp;temperature;humidity
64858;SHT30;51335;51.148;6.950;2023-02-01T00:00:10;5.85;98.02
64858;SHT30;51335;51.148;6.950;2023-02-01T00:00:41;5.85;97.97
64858;SHT30;51335;51.148;6.950;2023-02-01T00:01:11;5.86;97.96
64858;SHT30;51335;51.148;6.950;2023-02-01T00:01:41;5.86;97.84
64858;SHT30;51335;51.148;6.950;2023-02-01T00:02:12;5.92;97.72
64858;SHT30;51335;51.148;6.950;2023-02-01T00:02:42;5.95;97.64
64858;SHT30;51335;51.148;6.950;2023-02-01T00:03:12;5.96;97.64
64858;SHT30;51335;51.148;6.950;2023-02-01T00:03:43;5.93;97.54
64858;SHT30;51335;51.148;6.950;2023-02-01T00:04:13;5.92;97.52
64858;SHT30;51335;51.148;6.950;2023-02-01T00:04:43;5.93;97.50
64858;SHT30;51335;51.148;6.950;2023-02-01T00:05:14;5.90;97.46
64858;SHT30;51335;51.148;6.950;2023-02-01T00:05:44;5.92;97.56
64858;SHT30;51335;51.148;6.950;2023-02-01T00:06:14;5.96;97.39
64858;SHT30;51335;51.148;6.950;2023-02-01T00:06:45;5.93;97.28
64858;SHT30;51335;51.148;6.950;2023-02-01T00:07:15;5.96;97.30
64858;SHT30;51335;51.148;6.950;2023-02-01T00:07:47;6.00;97.24
64858;SHT30;51335;51.148;6.950;2023-02-01T00:08:17;5.99;97.18
64858;SHT30;51335;51.148;6.950;2023-02-01T00:08:47;6.00;97.06
64858;SHT30;51335;51.148;6.950;2023-02-01T00:09:18;6.03;97.02
64858;SHT30;51335;51.148;6.950;2023-02-01T00:09:48;6.02;97.03
64858;SHT30;51335;51.148;6.950;2023-02-01T00:10:18;6.02;97.11
64858;SHT30;51335;51.148;6.950;2023-02-01T00:10:48;6.03;97.05
64858;SHT30;51335;51.148;6.950;2023-02-01T00:11:19;5.98;97.09
64858;SHT30;51335;51.148;6.950;2023-02-01T00:11:49;5.99;97.20
64858;SHT30;51335;51.148;6.950;2023-02-01T00:12:19;5.96;97.20
64858;SHT30;51335;51.148;6.950;2023-02-01T00:12:50;5.96;97.27
64858;SHT30;51335;51.148;6.950;2023-02-01T00:13:20;5.95;97.41
64858;SHT30;51335;51.148;6.950;2023-02-01T00:13:50;5.96;97.42
64858;SHT30;51335;51.148;6.950;2023-02-01T00:14:21;5.95;97.38
64858;SHT30;51335;51.148;6.950;2023-02-01T00:14:51;5.96;97.31
64858;SHT30;51335;51.148;6.950;2023-02-01T00:15:21;6.03;97.10
64858;SHT30;51335;51.148;6.950;2023-02-01T00:15:52;6.05;96.93
64858;SHT30;51335;51.148;6.950;2023-02-01T00:16:27;6.06;96.85
64858;SHT30;51335;51.148;6.950;2023-02-01T00:16:58;6.05;97.03
64858;SHT30;51335;51.148;6.950;2023-02-01T00:17:28;6.06;97.01
64858;SHT30;51335;51.148;6.950;2023-02-01T00:17:58;6.10;96.98
64858;SHT30;51335;51.148;6.950;2023-02-01T00:18:29;6.07;96.80
64858;SHT30;51335;51.148;6.950;2023-02-01T00:19:03;6.06;96.82
64858;SHT30;51335;51.148;6.950;2023-02-01T00:19:34;6.05;96.83
64858;SHT30;51335;51.148;6.950;2023-02-01T00:20:05;6.02;96.96
64858;SHT30;51335;51.148;6.950;2023-02-01T00:20:35;6.06;96.98
64858;SHT30;51335;51.148;6.950;2023-02-01T00:21:05;6.03;97.05
64858;SHT30;51335;51.148;6.950;2023-02-01T00:21:36;6.00;97.00
64858;SHT30;51335;51.148;6.950;2023-02-01T00:22:06;6.05;97.03
64858;SHT30;51335;51.148;6.950;2023-02-01T00:22:36;6.03;97.03
64858;SHT30;51335;51.148;6.950;2023-02-01T00:23:06;6.02;97.03
64858;SHT30;51335;51.148;6.950;2023-02-01T00:23:37;6.06;96.90
64858;SHT30;51335;51.148;6.950;2023-02-01T00:24:09;6.06;96.87
64858;SHT30;51335;51.148;6.950;2023-02-01T00:24:40;6.06;96.83
64858;SHT30;51335;51.148;6.950;2023-02-01T00:25:10;6.06;96.80
64858;SHT30;51335;51.148;6.950;2023-02-01T00:25:40;6.03;96.87
64858;SHT30;51335;51.148;6.950;2023-02-01T00:26:16;6.02;97.01
64858;SHT30;51335;51.148;6.950;2023-02-01T00:26:47;5.98;97.00
64858;SHT30;51335;51.148;6.950;2023-02-01T00:27:17;5.99;97.04
64858;SHT30;51335;51.148;6.950;2023-02-01T00:27:50;6.05;96.97
64858;SHT30;51335;51.148;6.950;2023-02-01T00:28:20;6.06;96.87
64858;SHT30;51335;51.148;6.950;2023-02-01T00:28:51;6.05;96.79
64858;SHT30;51335;51.148;6.950;2023-02-01T00:29:21;6.05;96.78
64858;SHT30;51335;51.148;6.950;2023-02-01T00:29:54;6.07;96.83
64858;SHT30;51335;51.148;6.950;2023-02-01T00:30:24;6.03;96.90
64858;SHT30;51335;51.148;6.950;2023-02-01T00:31:03;6.02;96.97
64858;SHT30;51335;51.148;6.950;2023-02-01T00:31:33;6.00;96.92
64858;SHT30;51335;51.148;6.950;2023-02-01T00:32:04;6.02;96.91
64858;SHT30;51335;51.148;6.950;2023-02-01T00:32:35;6.02;96.97
64858;SHT30;51335;51.148;6.950;2023-02-01T00:33:05;5.99;97.01
64858;SHT30;51335;51.148;6.950;2023-02-01T00:33:35;6.02;96.96
64858;SHT30;51335;51.148;6.950;2023-02-01T00:34:05;6.02;96.95
64858;SHT30;51335;51.148;6.950;2023-02-01T00:34:36;6.02;96.97
64858;SHT30;51335;51.148;6.950;2023-02-01T00:35:07;6.00;97.04
64858;SHT30;51335;51.148;6.950;2023-02-01T00:35:37;6.02;97.01
64858;SHT30;51335;51.148;6.950;2023-02-01T00:36:08;5.99;97.01
64858;SHT30;51335;51.148;6.950;2023-02-01T00:36:40;5.99;97.09
64858;SHT30;51335;51.148;6.950;2023-02-01T00:37:10;6.03;97.00
64858;SHT30;51335;51.148;6.950;2023-02-01T00:37:40;6.02;96.92
64858;SHT30;51335;51.148;6.950;2023-02-01T00:38:11;6.02;96.92
64858;SHT30;51335;51.148;6.950;2023-02-01T00:38:41;6.05;96.91
64858;SHT30;51335;51.148;6.950;2023-02-01T00:39:12;6.06;96.83
64858;SHT30;51335;51.148;6.950;2023-02-01T00:39:43;6.06;96.64
64858;SHT30;51335;51.148;6.950;2023-02-01T00:40:13;6.07;96.67
64858;SHT30;51335;51.148;6.950;2023-02-01T00:40:43;6.03;96.71
64858;SHT30;51335;51.148;6.950;2023-02-01T00:41:16;6.09;96.74
64858;SHT30;51335;51.148;6.950;2023-02-01T00:41:46;6.10;96.65
64858;SHT30;51335;51.148;6.950;2023-02-01T00:42:17;6.09;96.49
64858;SHT30;51335;51.148;6.950;2023-02-01T00:42:47;6.07;96.61
64858;SHT30;51335;51.148;6.950;2023-02-01T00:43:17;6.06;96.66
64858;SHT30;51335;51.148;6.950;2023-02-01T00:43:48;6.05;96.61
64858;SHT30;51335;51.148;6.950;2023-02-01T00:44:19;6.10;96.55
64858;SHT30;51335;51.148;6.950;2023-02-01T00:44:49;6.09;96.51
64858;SHT30;51335;51.148;6.950;2023-02-01T00:45:19;6.07;96.44
64858;SHT30;51335;51.148;6.950;2023-02-01T00:45:50;6.06;96.43
64858;SHT30;51335;51.148;6.950;2023-02-01T00:46:20;6.03;96.44
64858;SHT30;51335;51.148;6.950;2023-02-01T00:46:50;6.07;96.45
64858;SHT30;51335;51.148;6.950;2023-02-01T00:47:21;6.07;96.31
64858;SHT30;51335;51.148;6.950;2023-02-01T00:47:51;6.06;96.19
64858;SHT30;51335;51.148;6.950;2023-02-01T00:48:21;6.14;95.98
64858;SHT30;51335;51.148;6.950;2023-02-01T00:48:51;6.13;95.83
64858;SHT30;51335;51.148;6.950;2023-02-01T00:49:22;6.11;95.70
64858;SHT30;51335;51.148;6.950;2023-02-01T00:49:52;6.11;95.78
64858;SHT30;51335;51.148;6.950;2023-02-01T00:50:22;6.13;95.72
64858;SHT30;51335;51.148;6.950;2023-02-01T00:50:53;6.09;95.82
64858;SHT30;51335;51.148;6.950;2023-02-01T00:51:25;6.11;95.83
64858;SHT30;51335;51.148;6.950;2023-02-01T00:51:55;6.09;95.86
64858;SHT30;51335;51.148;6.950;2023-02-01T00:52:26;6.07;95.86
64858;SHT30;51335;51.148;6.950;2023-02-01T00:52:56;6.07;95.87
64858;SHT30;51335;51.148;6.950;2023-02-01T00:53:26;6.07;95.79
64858;SHT30;51335;51.148;6.950;2023-02-01T00:53:57;6.09;95.79
64858;SHT30;51335;51.148;6.950;2023-02-01T00:54:27;6.13;95.84
64858;SHT30;51335;51.148;6.950;2023-02-01T00:54:57;6.14;95.75
64858;SHT30;51335;51.148;6.950;2023-02-01T00:55:28;6.17;95.57
64858;SHT30;51335;51.148;6.950;2023-02-01T00:55:58;6.19;95.32
64858;SHT30;51335;51.148;6.950;2023-02-01T00:56:28;6.20;95.36
64858;SHT30;51335;51.148;6.950;2023-02-01T00:56:59;6.20;95.14
64858;SHT30;51335;51.148;6.950;2023-02-01T00:57:30;6.23;94.94
64858;SHT30;51335;51.148;6.950;2023-02-01T00:58:00;6.21;94.54
64858;SHT30;51335;51.148;6.950;2023-02-01T00:58:31;6.19;94.51
64858;SHT30;51335;51.148;6.950;2023-02-01T00:59:02;6.17;94.43
64858;SHT30;51335;51.148;6.950;2023-02-01T00:59:32;6.20;94.50
64858;SHT30;51335;51.148;6.950;2023-02-01T01:00:03;6.16;94.43
64858;SHT30;51335;51.148;6.950;2023-02-01T01:00:34;6.10;94.50
64858;SHT30;51335;51.148;6.950;2023-02-01T01:01:10;6.09;94.65
64858;SHT30;51335;51.148;6.950;2023-02-01T01:01:40;6.14;94.56
64858;SHT30;51335;51.148;6.950;2023-02-01T01:02:11;6.17;94.47
64858;SHT30;51335;51.148;6.950;2023-02-01T01:02:41;6.14;94.34
64858;SHT30;51335;51.148;6.950;2023-02-01T01:03:12;6.10;94.37
64858;SHT30;51335;51.148;6.950;2023-02-01T01:03:44;6.10;94.50
64858;SHT30;51335;51.148;6.950;2023-02-01T01:04:15;6.05;94.56
64858;SHT30;51335;51.148;6.950;2023-02-01T01:04:45;6.03;94.65
64858;SHT30;51335;51.148;6.950;2023-02-01T01:05:15;5.96;94.67
64858;SHT30;51335;51.148;6.950;2023-02-01T01:05:47;5.96;94.81
64858;SHT30;51335;51.148;6.950;2023-02-01T01:06:26;5.99;94.88
64858;SHT30;51335;51.148;6.950;2023-02-01T01:06:58;5.99;94.68
64858;SHT30;51335;51.148;6.950;2023-02-01T01:07:28;6.06;94.46
64858;SHT30;51335;51.148;6.950;2023-02-01T01:07:58;6.05;94.20
64858;SHT30;51335;51.148;6.950;2023-02-01T01:08:28;6.03;94.25
64858;SHT30;51335;51.148;6.950;2023-02-01T01:09:01;5.99;94.18
64858;SHT30;51335;51.148;6.950;2023-02-01T01:09:32;6.02;94.07
64858;SHT30;51335;51.148;6.950;2023-02-01T01:10:02;6.05;93.84
64858;SHT30;51335;51.148;6.950;2023-02-01T01:10:33;6.05;93.79
64858;SHT30;51335;51.148;6.950;2023-02-01T01:11:05;6.03;93.54
64858;SHT30;51335;51.148;6.950;2023-02-01T01:11:37;5.99;93.64
64858;SHT30;51335;51.148;6.950;2023-02-01T01:12:07;5.96;93.67
64858;SHT30;51335;51.148;6.950;2023-02-01T01:12:38;5.96;93.61
64858;SHT30;51335;51.148;6.950;2023-02-01T01:13:09;5.96;93.59
64858;SHT30;51335;51.148;6.950;2023-02-01T01:13:39;5.92;93.58
64858;SHT30;51335;51.148;6.950;2023-02-01T01:14:10;5.95;93.57
64858;SHT30;51335;51.148;6.950;2023-02-01T01:14:41;5.95;93.41
64858;SHT30;51335;51.148;6.950;2023-02-01T01:15:11;5.93;93.21
64858;SHT30;51335;51.148;6.950;2023-02-01T01:15:41;5.93;93.26
64858;SHT30;51335;51.148;6.950;2023-02-01T01:16:11;5.88;93.31
64858;SHT30;51335;51.148;6.950;2023-02-01T01:16:42;5.88;93.43
64858;SHT30;51335;51.148;6.950;2023-02-01T01:17:12;5.82;93.35
64858;SHT30;51335;51.148;6.950;2023-02-01T01:17:42;5.83;93.33
64858;SHT30;51335;51.148;6.950;2023-02-01T01:18:13;5.82;93.31
64858;SHT30;51335;51.148;6.950;2023-02-01T01:18:43;5.82;93.29
64858;SHT30;51335;51.148;6.950;2023-02-01T01:19:14;5.82;93.10
64858;SHT30;51335;51.148;6.950;2023-02-01T01:19:44;5.80;92.50
64858;SHT30;51335;51.148;6.950;2023-02-01T01:20:14;5.85;92.32
64858;SHT30;51335;51.148;6.950;2023-02-01T01:20:44;5.86;92.12
64858;SHT30;51335;51.148;6.950;2023-02-01T01:21:16;5.90;91.75
64858;SHT30;51335;51.148;6.950;2023-02-01T01:21:46;5.92;91.71
64858;SHT30;51335;51.148;6.950;2023-02-01T01:22:16;5.93;91.72
64858;SHT30;51335;51.148;6.950;2023-02-01T01:22:47;5.99;91.55
64858;SHT30;51335;51.148;6.950;2023-02-01T01:23:18;5.96;91.25
64858;SHT30;51335;51.148;6.950;2023-02-01T01:23:48;5.95;91.26
64858;SHT30;51335;51.148;6.950;2023-02-01T01:24:18;5.93;91.36
64858;SHT30;51335;51.148;6.950;2023-02-01T01:24:48;5.98;91.41
64858;SHT30;51335;51.148;6.950;2023-02-01T01:25:19;5.98;90.75
64858;SHT30;51335;51.148;6.950;2023-02-01T01:25:49;5.98;90.46
64858;SHT30;51335;51.148;6.950;2023-02-01T01:26:22;5.98;90.58
64858;SHT30;51335;51.148;6.950;2023-02-01T01:26:52;5.98;90.55
64858;SHT30;51335;51.148;6.950;2023-02-01T01:27:23;5.96;90.49
64858;SHT30;51335;51.148;6.950;2023-02-01T01:27:53;5.96;90.52
64858;SHT30;51335;51.148;6.950;2023-02-01T01:28:24;5.96;90.23
64858;SHT30;51335;51.148;6.950;2023-02-01T01:28:56;5.98;89.79
64858;SHT30;51335;51.148;6.950;2023-02-01T01:29:26;5.96;89.97
64858;SHT30;51335;51.148;6.950;2023-02-01T01:29:56;5.98;90.16
64858;SHT30;51335;51.148;6.950;2023-02-01T01:30:27;5.98;90.16
64858;SHT30;51335;51.148;6.950;2023-02-01T01:30:57;6.00;90.16
64858;SHT30;51335;51.148;6.950;2023-02-01T01:31:28;6.02;90.03
64858;SHT30;51335;51.148;6.950;2023-02-01T01:31:58;6.00;89.91
64858;SHT30;51335;51.148;6.950;2023-02-01T01:32:28;6.00;89.77
64858;SHT30;51335;51.148;6.950;2023-02-01T01:32:58;6.02;89.76
64858;SHT30;51335;51.148;6.950;2023-02-01T01:33:29;5.96;89.78
64858;SHT30;51335;51.148;6.950;2023-02-01T01:33:59;5.98;89.37
64858;SHT30;51335;51.148;6.950;2023-02-01T01:34:29;6.00;89.13
64858;SHT30;51335;51.148;6.950;2023-02-01T01:35:00;6.03;88.94
64858;SHT30;51335;51.148;6.950;2023-02-01T01:35:31;6.02;88.49
64858;SHT30;51335;51.148;6.950;2023-02-01T01:36:03;6.02;88.16
64858;SHT30;51335;51.148;6.950;2023-02-01T01:36:34;6.00;88.25
64858;SHT30;51335;51.148;6.950;2023-02-01T01:37:04;6.03;88.28
64858;SHT30;51335;51.148;6.950;2023-02-01T01:37:34;6.03;88.16
64858;SHT30;51335;51.148;6.950;2023-02-01T01:38:04;6.05;88.20
64858;SHT30;51335;51.148;6.950;2023-02-01T01:38:35;6.05;88.24
64858;SHT30;51335;51.148;6.950;2023-02-01T01:39:05;6.05;88.22
64858;SHT30;51335;51.148;6.950;2023-02-01T01:39:35;6.02;87.97
64858;SHT30;51335;51.148;6.950;2023-02-01T01:40:07;6.06;88.03
64858;SHT30;51335;51.148;6.950;2023-02-01T01:40:37;6.05;87.48
64858;SHT30;51335;51.148;6.950;2023-02-01T01:41:13;6.05;87.12
64858;SHT30;51335;51.148;6.950;2023-02-01T01:41:43;6.05;87.46
64858;SHT30;51335;51.148;6.950;2023-02-01T01:42:14;6.02;87.58
64858;SHT30;51335;51.148;6.950;2023-02-01T01:42:44;6.00;87.74
64858;SHT30;51335;51.148;6.950;2023-02-01T01:43:17;6.02;87.87
64858;SHT30;51335;51.148;6.950;2023-02-01T01:44:00;6.03;87.21
64858;SHT30;51335;51.148;6.950;2023-02-01T01:45:04;6.06;86.81
64858;SHT30;51335;51.148;6.950;2023-02-01T01:45:35;6.05;86.62
64858;SHT30;51335;51.148;6.950;2023-02-01T01:46:05;6.03;86.76
64858;SHT30;51335;51.148;6.950;2023-02-01T01:46:37;6.09;86.87
64858;SHT30;51335;51.148;6.950;2023-02-01T01:47:08;6.09;86.68
64858;SHT30;51335;51.148;6.950;2023-02-01T01:47:43;6.09;86.38
64858;SHT30;51335;51.148;6.950;2023-02-01T01:48:27;6.09;86.18
64858;SHT30;51335;51.148;6.950;2023-02-01T01:49:31;6.05;86.22
64858;SHT30;51335;51.148;6.950;2023-02-01T01:50:02;6.06;86.46
64858;SHT30;51335;51.148;6.950;2023-02-01T01:50:57;6.03;86.67
64858;SHT30;51335;51.148;6.950;2023-02-01T01:51:31;6.00;86.73
64858;SHT30;51335;51.148;6.950;2023-02-01T01:52:02;5.98;86.79
64858;SHT30;51335;51.148;6.950;2023-02-01T01:52:34;5.93;86.60
64858;SHT30;51335;51.148;6.950;2023-02-01T01:53:08;5.96;86.73
64858;SHT30;51335;51.148;6.950;2023-02-01T01:53:44;5.89;86.75
64858;SHT30;51335;51.148;6.950;2023-02-01T01:54:41;5.89;86.77
64858;SHT30;51335;51.148;6.950;2023-02-01T01:55:10;5.93;86.93
64858;SHT30;51335;51.148;6.950;2023-02-01T01:55:42;5.93;86.83
64858;SHT30;51335;51.148;6.950;2023-02-01T01:56:14;5.92;86.89
64858;SHT30;51335;51.148;6.950;2023-02-01T01:56:48;5.90;86.90
64858;SHT30;51335;51.148;6.950;2023-02-01T01:57:26;5.99;86.88
64858;SHT30;51335;51.148;6.950;2023-02-01T01:58:00;5.98;86.72
64858;SHT30;51335;51.148;6.950;2023-02-01T01:58:32;5.88;86.68
64858;SHT30;51335;51.148;6.950;2023-02-01T01:59:03;5.86;86.86
64858;SHT30;51335;51.148;6.950;2023-02-01T01:59:36;5.89;86.62
64858;SHT30;51335;51.148;6.950;2023-02-01T02:00:11;5.89;86.65
64858;SHT30;51335;51.148;6.950;2023-02-01T02:00:43;5.90;86.75
64858;SHT30;51335;51.148;6.950;2023-02-01T02:01:13;5.86;86.65
64858;SHT30;51335;51.148;6.950;2023-02-01T02:01:45;5.85;86.80
64858;SHT30;51335;51.148;6.950;2023-02-01T02:02:16;5.86;86.82
64858;SHT30;51335;51.148;6.950;2023-02-01T02:02:48;5.83;86.72
64858;SHT30;51335;51.148;6.950;2023-02-01T02:03:27;5.80;86.92
64858;SHT30;51335;51.148;6.950;2023-02-01T02:03:59;5.75;87.20
64858;SHT30;51335;51.148;6.950;2023-02-01T02:04:31;5.70;87.45
64858;SHT30;51335;51.148;6.950;2023-02-01T02:05:03;5.68;87.48
64858;SHT30;51335;51.148;6.950;2023-02-01T02:05:33;5.68;87.58
64858;SHT30;51335;51.148;6.950;2023-02-01T02:06:10;5.66;87.57
64858;SHT30;51335;51.148;6.950;2023-02-01T02:06:43;5.62;87.54
64858;SHT30;51335;51.148;6.950;2023-02-01T02:07:19;5.61;87.73
64858;SHT30;51335;51.148;6.950;2023-02-01T02:07:53;5.62;87.75
64858;SHT30;51335;51.148;6.950;2023-02-01T02:08:26;5.58;87.76
64858;SHT30;51335;51.148;6.950;2023-02-01T02:08:56;5.55;87.85
64858;SHT30;51335;51.148;6.950;2023-02-01T02:09:27;5.56;87.95
64858;SHT30;51335;51.148;6.950;2023-02-01T02:09:57;5.54;87.84
64858;SHT30;51335;51.148;6.950;2023-02-01T02:10:28;5.52;87.99
64858;SHT30;51335;51.148;6.950;2023-02-01T02:10:58;5.48;88.15
64858;SHT30;51335;51.148;6.950;2023-02-01T02:11:28;5.51;88.25
64858;SHT30;51335;51.148;6.950;2023-02-01T02:11:59;5.47;88.37
64858;SHT30;51335;51.148;6.950;2023-02-01T02:12:29;5.55;88.42
64858;SHT30;51335;51.148;6.950;2023-02-01T02:12:59;5.51;88.20
64858;SHT30;51335;51.148;6.950;2023-02-01T02:13:41;5.52;88.26
64858;SHT30;51335;51.148;6.950;2023-02-01T02:14:14;5.56;87.99
64858;SHT30;51335;51.148;6.950;2023-02-01T02:14:45;5.52;87.95
64858;SHT30;51335;51.148;6.950;2023-02-01T02:15:16;5.52;88.09
64858;SHT30;51335;51.148;6.950;2023-02-01T02:16:51;5.51;88.09
64858;SHT30;51335;51.148;6.950;2023-02-01T02:19:33;5.48;88.14
64858;SHT30;51335;51.148;6.950;2023-02-01T02:22:12;5.41;88.39
64858;SHT30;51335;51.148;6.950;2023-02-01T02:27:14;5.30;88.57
64858;SHT30;51335;51.148;6.950;2023-02-01T02:32:05;5.27;88.89
64858;SHT30;51335;51.148;6.950;2023-02-01T02:34:56;5.27;88.85
64858;SHT30;51335;51.148;6.950;2023-02-01T02:37:01;5.23;88.85
64858;SHT30;51335;51.148;6.950;2023-02-01T02:37:49;5.23;88.54
64858;SHT30;51335;51.148;6.950;2023-02-01T02:40:20;5.21;88.65
64858;SHT30;51335;51.148;6.950;2023-02-01T02:41:13;5.17;88.78
64858;SHT30;51335;51.148;6.950;2023-02-01T02:42:48;5.07;88.90
64858;SHT30;51335;51.148;6.950;2023-02-01T02:43:29;5.04;89.04
64858;SHT30;51335;51.148;6.950;2023-02-01T02:44:08;5.06;89.46
64858;SHT30;51335;51.148;6.950;2023-02-01T02:44:49;5.07;89.27
64858;SHT30;51335;51.148;6.950;2023-02-01T02:45:31;5.07;89.21
64858;SHT30;51335;51.148;6.950;2023-02-01T02:46:17;5.09;89.19
64858;SHT30;51335;51.148;6.950;2023-02-01T02:46:51;5.10;89.15
64858;SHT30;51335;51.148;6.950;2023-02-01T02:47:32;5.09;89.21
64858;SHT30;51335;51.148;6.950;2023-02-01T02:48:09;5.10;89.03
64858;SHT30;51335;51.148;6.950;2023-02-01T02:48:52;5.14;89.10
64858;SHT30;51335;51.148;6.950;2023-02-01T02:49:35;5.16;89.09
64858;SHT30;51335;51.148;6.950;2023-02-01T02:50:27;5.20;89.03
64858;SHT30;51335;51.148;6.950;2023-02-01T02:51:28;5.14;89.04
64858;SHT30;51335;51.148;6.950;2023-02-01T02:52:11;5.16;89.01
64858;SHT30;51335;51.148;6.950;2023-02-01T02:52:49;5.19;89.16
64858;SHT30;51335;51.148;6.950;2023-02-01T02:53:27;5.17;89.12
64858;SHT30;51335;51.148;6.950;2023-02-01T02:54:36;5.14;89.01
64858;SHT30;51335;51.148;6.950;2023-02-01T02:55:08;5.17;89.04
64858;SHT30;51335;51.148;6.950;2023-02-01T02:55:40;5.14;89.14
64858;SHT30;51335;51.148;6.950;2023-02-01T02:56:11;5.13;89.33
64858;SHT30;51335;51.148;6.950;2023-02-01T02:56:42;5.16;89.17
64858;SHT30;51335;51.148;6.950;2023-02-01T02:57:22;5.16;89.24
64858;SHT30;51335;51.148;6.950;2023-02-01T02:57:56;5.17;89.16
64858;SHT30;51335;51.148;6.950;2023-02-01T02:58:27;5.16;89.12
64858;SHT30;51335;51.148;6.950;2023-02-01T02:58:58;5.19;89.21
64858;SHT30;51335;51.148;6.950;2023-02-01T02:59:29;5.19;89.22
64858;SHT30;51335;51.148;6.950;2023-02-01T03:00:02;5.19;89.21
64858;SHT30;51335;51.148;6.950;2023-02-01T03:00:35;5.17;89.07
64858;SHT30;51335;51.148;6.950;2023-02-01T03:01:06;5.17;89.06
64858;SHT30;51335;51.148;6.950;2023-02-01T03:01:38;5.20;89.11
64858;SHT30;51335;51.148;6.950;2023-02-01T03:02:10;5.13;89.04
64858;SHT30;51335;51.148;6.950;2023-02-01T03:02:40;5.13;89.31
64858;SHT30;51335;51.148;6.950;2023-02-01T03:03:11;5.09;89.22
64858;SHT30;51335;51.148;6.950;2023-02-01T03:03:42;5.10;89.30
64858;SHT30;51335;51.148;6.950;2023-02-01T03:04:14;5.07;89.32
64858;SHT30;51335;51.148;6.950;2023-02-01T03:04:44;5.13;89.06
64858;SHT30;51335;51.148;6.950;2023-02-01T03:05:14;5.13;88.89
64858;SHT30;51335;51.148;6.950;2023-02-01T03:05:46;5.16;88.88
64858;SHT30;51335;51.148;6.950;2023-02-01T03:06:17;5.13;88.85
64858;SHT30;51335;51.148;6.950;2023-02-01T03:06:48;5.21;88.75
64858;SHT30;51335;51.148;6.950;2023-02-01T03:08:28;5.11;88.98
64858;SHT30;51335;51.148;6.950;2023-02-01T03:08:59;5.10;88.95
64858;SHT30;51335;51.148;6.950;2023-02-01T03:09:35;5.13;88.85
64858;SHT30;51335;51.148;6.950;2023-02-01T03:10:24;5.17;88.84
64858;SHT30;51335;51.148;6.950;2023-02-01T03:11:29;5.11;88.92
64858;SHT30;51335;51.148;6.950;2023-02-01T03:12:07;5.13;89.09
64858;SHT30;51335;51.148;6.950;2023-02-01T03:12:39;5.20;88.87
64858;SHT30;51335;51.148;6.950;2023-02-01T03:14:10;5.23;88.90
64858;SHT30;51335;51.148;6.950;2023-02-01T03:14:44;5.27;88.80
64858;SHT30;51335;51.148;6.950;2023-02-01T03:15:15;5.24;88.68
64858;SHT30;51335;51.148;6.950;2023-02-01T03:15:53;5.24;88.82
64858;SHT30;51335;51.148;6.950;2023-02-01T03:17:19;5.27;88.65
64858;SHT30;51335;51.148;6.950;2023-02-01T03:17:50;5.28;88.70
64858;SHT30;51335;51.148;6.950;2023-02-01T03:18:44;5.35;88.47
64858;SHT30;51335;51.148;6.950;2023-02-01T03:19:23;5.35;88.47
64858;SHT30;51335;51.148;6.950;2023-02-01T03:19:58;5.40;88.26
64858;SHT30;51335;51.148;6.950;2023-02-01T03:20:31;5.38;88.25
64858;SHT30;51335;51.148;6.950;2023-02-01T03:21:05;5.42;88.33
64858;SHT30;51335;51.148;6.950;2023-02-01T03:22:19;5.45;88.17
64858;SHT30;51335;51.148;6.950;2023-02-01T03:22:31;5.45;88.19
64858;SHT30;51335;51.148;6.950;2023-02-01T03:23:02;5.44;88.30
64858;SHT30;51335;51.148;6.950;2023-02-01T03:23:36;5.45;88.26
64858;SHT30;51335;51.148;6.950;2023-02-01T03:24:34;5.47;88.28
64858;SHT30;51335;51.148;6.950;2023-02-01T03:25:10;5.44;88.34
64858;SHT30;51335;51.148;6.950;2023-02-01T03:25:43;5.44;88.51
64858;SHT30;51335;51.148;6.950;2023-02-01T03:26:16;5.50;88.26
64858;SHT30;51335;51.148;6.950;2023-02-01T03:26:52;5.51;88.25
64858;SHT30;51335;51.148;6.950;2023-02-01T03:27:30;5.45;88.52
64858;SHT30;51335;51.148;6.950;2023-02-01T03:28:06;5.51;88.57
64858;SHT30;51335;51.148;6.950;2023-02-01T03:28:39;5.52;88.47
64858;SHT30;51335;51.148;6.950;2023-02-01T03:29:16;5.51;88.43
64858;SHT30;51335;51.148;6.950;2023-02-01T03:30:07;5.50;88.65
64858;SHT30;51335;51.148;6.950;2023-02-01T03:30:42;5.50;88.79
64858;SHT30;51335;51.148;6.950;2023-02-01T03:31:12;5.50;88.79
64858;SHT30;51335;51.148;6.950;2023-02-01T03:31:43;5.47;88.86
64858;SHT30;51335;51.148;6.950;2023-02-01T03:32:13;5.51;88.79
64858;SHT30;51335;51.148;6.950;2023-02-01T03:32:46;5.52;88.64
64858;SHT30;51335;51.148;6.950;2023-02-01T03:33:19;5.54;88.61
64858;SHT30;51335;51.148;6.950;2023-02-01T03:33:51;5.54;88.74
64858;SHT30;51335;51.148;6.950;2023-02-01T03:34:21;5.51;88.80
64858;SHT30;51335;51.148;6.950;2023-02-01T03:34:52;5.50;88.78
64858;SHT30;51335;51.148;6.950;2023-02-01T03:37:27;5.52;89.04
64858;SHT30;51335;51.148;6.950;2023-02-01T03:39:38;5.54;89.05
64858;SHT30;51335;51.148;6.950;2023-02-01T03:40:11;5.54;89.17
64858;SHT30;51335;51.148;6.950;2023-02-01T03:40:45;5.54;89.15
64858;SHT30;51335;51.148;6.950;2023-02-01T03:41:40;5.56;89.22
64858;SHT30;51335;51.148;6.950;2023-02-01T03:42:22;5.59;89.12
64858;SHT30;51335;51.148;6.950;2023-02-01T03:42:55;5.55;89.06
64858;SHT30;51335;51.148;6.950;2023-02-01T03:43:34;5.59;89.13
64858;SHT30;51335;51.148;6.950;2023-02-01T03:44:26;5.54;89.28
64858;SHT30;51335;51.148;6.950;2023-02-01T03:45:05;5.52;89.29
64858;SHT30;51335;51.148;6.950;2023-02-01T03:45:41;5.55;89.31
64858;SHT30;51335;51.148;6.950;2023-02-01T03:46:20;5.55;89.31
64858;SHT30;51335;51.148;6.950;2023-02-01T03:47:12;5.54;89.44
64858;SHT30;51335;51.148;6.950;2023-02-01T03:47:47;5.51;89.46
64858;SHT30;51335;51.148;6.950;2023-02-01T03:48:18;5.52;89.41
64858;SHT30;51335;51.148;6.950;2023-02-01T03:48:50;5.54;89.34
64858;SHT30;51335;51.148;6.950;2023-02-01T03:49:35;5.55;89.23
64858;SHT30;51335;51.148;6.950;2023-02-01T03:50:11;5.52;89.38
64858;SHT30;51335;51.148;6.950;2023-02-01T03:50:48;5.51;89.47
64858;SHT30;51335;51.148;6.950;2023-02-01T03:51:20;5.51;89.50
64858;SHT30;51335;51.148;6.950;2023-02-01T03:51:51;5.52;89.53
64858;SHT30;51335;51.148;6.950;2023-02-01T03:52:28;5.47;89.58
64858;SHT30;51335;51.148;6.950;2023-02-01T03:53:12;5.50;89.50
64858;SHT30;51335;51.148;6.950;2023-02-01T03:53:44;5.48;89.52
64858;SHT30;51335;51.148;6.950;2023-02-01T03:54:17;5.50;89.46
64858;SHT30;51335;51.148;6.950;2023-02-01T03:54:49;5.50;89.39
64858;SHT30;51335;51.148;6.950;2023-02-01T03:55:22;5.47;89.47
64858;SHT30;51335;51.148;6.950;2023-02-01T03:55:53;5.51;89.56
64858;SHT30;51335;51.148;6.950;2023-02-01T03:56:25;5.50;89.48
64858;SHT30;51335;51.148;6.950;2023-02-01T03:57:00;5.50;89.51
64858;SHT30;51335;51.148;6.950;2023-02-01T03:57:35;5.48;89.55
64858;SHT30;51335;51.148;6.950;2023-02-01T03:58:16;5.50;89.45
64858;SHT30;51335;51.148;6.950;2023-02-01T03:58:47;5.56;89.43
64858;SHT30;51335;51.148;6.950;2023-02-01T03:59:18;5.56;89.19
64858;SHT30;51335;51.148;6.950;2023-02-01T03:59:49;5.55;89.30
64858;SHT30;51335;51.148;6.950;2023-02-01T04:00:21;5.54;89.21
64858;SHT30;51335;51.148;6.950;2023-02-01T04:00:57;5.52;89.08